sensor_id;sensor_type;location;lat;lon;timestamp;P1;durP1;ratioP1;P2;durP2;ratioP2
15474;SDS011;7839;50.462;9.678;2022-12-22T00:03:34;1.00;;;0.70;;
15474;SDS011;7839;50.462;9.678;2022-12-22T00:10:35;1.20;;;0.53;;
15474;SDS011;7839;50.462;9.678;2022-12-22T00:17:33;0.70;;;0.60;;
15474;SDS011;7839;50.462;9.678;2022-12-22T00:24:32;0.50;;;0.50;;
15474;SDS011;7839;50.462;9.678;2022-12-22T00:31:31;0.43;;;0.40;;
15474;SDS011;7839;50.462;9.678;2022-12-22T00:38:30;0.50;;;0.50;;
15474;SDS011;7839;50.462;9.678;2022-12-22T00:45:29;0.60;;;0.60;;
15474;SDS011;7839;50.462;9.678;2022-12-22T00:52:28;0.60;;;0.60;;
15474;SDS011;7839;50.462;9.678;2022-12-22T00:59:26;0.77;;;0.40;;
15474;SDS011;7839;50.462;9.678;2022-12-22T01:06:26;1.33;;;0.70;;
15474;SDS011;7839;50.462;9.678;2022-12-22T01:13:27;0.50;;;0.50;;
15474;SDS011;7839;50.462;9.678;2022-12-22T01:20:26;0.50;;;0.50;;
15474;SDS011;7839;50.462;9.678;2022-12-22T01:27:25;0.40;;;0.40;;
15474;SDS011;7839;50.462;9.678;2022-12-22T01:34:24;0.40;;;0.40;;
15474;SDS011;7839;50.462;9.678;2022-12-22T01:41:23;0.33;;;0.33;;
15474;SDS011;7839;50.462;9.678;2022-12-22T01:48:25;0.37;;;0.37;;
15474;SDS011;7839;50.462;9.678;2022-12-22T01:55:25;0.40;;;0.40;;
15474;SDS011;7839;50.462;9.678;2022-12-22T02:02:24;0.30;;;0.30;;
15474;SDS011;7839;50.462;9.678;2022-12-22T02:16:46;0.20;;;0.20;;
15474;SDS011;7839;50.462;9.678;2022-12-22T02:30:50;0.10;;;0.10;;
15474;SDS011;7839;50.462;9.678;2022-12-22T02:37:56;0.20;;;0.20;;
15474;SDS011;7839;50.462;9.678;2022-12-22T02:52:04;0.17;;;0.17;;
15474;SDS011;7839;50.462;9.678;2022-12-22T02:59:06;0.27;;;0.27;;
15474;SDS011;7839;50.462;9.678;2022-12-22T03:06:04;0.10;;;0.10;;
15474;SDS011;7839;50.462;9.678;2022-12-22T03:13:04;0.30;;;0.30;;
15474;SDS011;7839;50.462;9.678;2022-12-22T03:20:03;0.30;;;0.30;;
15474;SDS011;7839;50.462;9.678;2022-12-22T03:27:02;0.13;;;0.13;;
15474;SDS011;7839;50.462;9.678;2022-12-22T03:33:42;0.20;;;0.20;;
15474;SDS011;7839;50.462;9.678;2022-12-22T03:40:23;0.30;;;0.20;;
15474;SDS011;7839;50.462;9.678;2022-12-22T03:47:03;0.30;;;0.30;;
15474;SDS011;7839;50.462;9.678;2022-12-22T03:53:44;0.10;;;0.10;;
15474;SDS011;7839;50.462;9.678;2022-12-22T04:00:24;0.10;;;0.10;;
15474;SDS011;7839;50.462;9.678;2022-12-22T04:07:04;0.23;;;0.23;;
15474;SDS011;7839;50.462;9.678;2022-12-22T04:13:44;0.30;;;0.30;;
15474;SDS011;7839;50.462;9.678;2022-12-22T04:20:26;0.10;;;0.10;;
15474;SDS011;7839;50.462;9.678;2022-12-22T04:27:07;0.20;;;0.10;;
15474;SDS011;7839;50.462;9.678;2022-12-22T04:33:48;0.10;;;0.10;;
15474;SDS011;7839;50.462;9.678;2022-12-22T04:40:28;0.33;;;0.20;;
15474;SDS011;7839;50.462;9.678;2022-12-22T04:47:08;0.33;;;0.20;;
15474;SDS011;7839;50.462;9.678;2022-12-22T04:53:49;0.20;;;0.20;;
15474;SDS011;7839;50.462;9.678;2022-12-22T05:00:29;0.30;;;0.30;;
15474;SDS011;7839;50.462;9.678;2022-12-22T05:07:09;0.13;;;0.13;;
15474;SDS011;7839;50.462;9.678;2022-12-22T05:13:49;0.43;;;0.40;;
15474;SDS011;7839;50.462;9.678;2022-12-22T05:20:30;0.30;;;0.30;;
15474;SDS011;7839;50.462;9.678;2022-12-22T05:27:10;0.10;;;0.10;;
15474;SDS011;7839;50.462;9.678;2022-12-22T05:33:51;0.50;;;0.20;;
15474;SDS011;7839;50.462;9.678;2022-12-22T05:40:31;0.50;;;0.50;;
15474;SDS011;7839;50.462;9.678;2022-12-22T05:47:11;0.60;;;0.30;;
15474;SDS011;7839;50.462;9.678;2022-12-22T05:53:52;0.13;;;0.13;;
15474;SDS011;7839;50.462;9.678;2022-12-22T06:00:32;0.40;;;0.33;;
15474;SDS011;7839;50.462;9.678;2022-12-22T06:07:12;0.43;;;0.43;;
15474;SDS011;7839;50.462;9.678;2022-12-22T06:13:52;1.50;;;0.67;;
15474;SDS011;7839;50.462;9.678;2022-12-22T06:20:32;0.20;;;0.20;;
15474;SDS011;7839;50.462;9.678;2022-12-22T06:27:13;0.47;;;0.23;;
15474;SDS011;7839;50.462;9.678;2022-12-22T06:33:53;1.10;;;0.37;;
15474;SDS011;7839;50.462;9.678;2022-12-22T06:40:33;0.63;;;0.57;;
15474;SDS011;7839;50.462;9.678;2022-12-22T06:47:13;0.40;;;0.40;;
15474;SDS011;7839;50.462;9.678;2022-12-22T06:53:54;0.57;;;0.30;;
15474;SDS011;7839;50.462;9.678;2022-12-22T07:00:34;0.90;;;0.90;;
15474;SDS011;7839;50.462;9.678;2022-12-22T07:07:14;1.13;;;1.00;;
15474;SDS011;7839;50.462;9.678;2022-12-22T07:13:54;1.13;;;0.87;;
15474;SDS011;7839;50.462;9.678;2022-12-22T07:20:35;1.37;;;1.10;;
15474;SDS011;7839;50.462;9.678;2022-12-22T07:27:15;0.87;;;0.83;;
15474;SDS011;7839;50.462;9.678;2022-12-22T07:33:56;1.97;;;0.70;;
15474;SDS011;7839;50.462;9.678;2022-12-22T07:40:36;0.80;;;0.80;;
15474;SDS011;7839;50.462;9.678;2022-12-22T07:47:16;0.50;;;0.50;;
15474;SDS011;7839;50.462;9.678;2022-12-22T07:53:57;0.60;;;0.47;;
15474;SDS011;7839;50.462;9.678;2022-12-22T08:00:37;0.53;;;0.50;;
15474;SDS011;7839;50.462;9.678;2022-12-22T08:07:17;0.73;;;0.63;;
15474;SDS011;7839;50.462;9.678;2022-12-22T08:13:57;0.50;;;0.50;;
15474;SDS011;7839;50.462;9.678;2022-12-22T08:20:38;0.90;;;0.47;;
15474;SDS011;7839;50.462;9.678;2022-12-22T08:27:22;0.83;;;0.40;;
15474;SDS011;7839;50.462;9.678;2022-12-22T08:34:05;1.60;;;0.57;;
15474;SDS011;7839;50.462;9.678;2022-12-22T08:40:46;1.47;;;0.50;;
15474;SDS011;7839;50.462;9.678;2022-12-22T08:47:27;0.30;;;0.30;;
15474;SDS011;7839;50.462;9.678;2022-12-22T08:54:07;0.47;;;0.30;;
15474;SDS011;7839;50.462;9.678;2022-12-22T09:00:47;0.40;;;0.40;;
15474;SDS011;7839;50.462;9.678;2022-12-22T09:07:27;0.67;;;0.37;;
15474;SDS011;7839;50.462;9.678;2022-12-22T09:14:09;0.40;;;0.40;;
15474;SDS011;7839;50.462;9.678;2022-12-22T09:20:55;1.83;;;0.70;;
15474;SDS011;7839;50.462;9.678;2022-12-22T09:27:36;0.73;;;0.30;;
15474;SDS011;7839;50.462;9.678;2022-12-22T09:34:16;0.47;;;0.30;;
15474;SDS011;7839;50.462;9.678;2022-12-22T09:40:56;1.67;;;0.37;;
15474;SDS011;7839;50.462;9.678;2022-12-22T09:47:37;1.23;;;0.40;;
15474;SDS011;7839;50.462;9.678;2022-12-22T09:54:19;0.73;;;0.30;;
15474;SDS011;7839;50.462;9.678;2022-12-22T10:07:46;0.50;;;0.43;;
15474;SDS011;7839;50.462;9.678;2022-12-22T10:14:30;1.33;;;0.30;;
15474;SDS011;7839;50.462;9.678;2022-12-22T10:21:13;1.47;;;0.57;;
15474;SDS011;7839;50.462;9.678;2022-12-22T10:27:54;0.40;;;0.37;;
15474;SDS011;7839;50.462;9.678;2022-12-22T10:34:34;0.50;;;0.50;;
15474;SDS011;7839;50.462;9.678;2022-12-22T10:41:16;0.97;;;0.47;;
15474;SDS011;7839;50.462;9.678;2022-12-22T10:47:57;1.77;;;0.67;;
15474;SDS011;7839;50.462;9.678;2022-12-22T10:54:37;1.17;;;0.60;;
15474;SDS011;7839;50.462;9.678;2022-12-22T11:01:22;0.40;;;0.40;;
15474;SDS011;7839;50.462;9.678;2022-12-22T11:08:12;1.60;;;0.50;;
15474;SDS011;7839;50.462;9.678;2022-12-22T12:02:54;0.70;;;0.70;;
15474;SDS011;7839;50.462;9.678;2022-12-22T12:09:44;0.67;;;0.37;;
15474;SDS011;7839;50.462;9.678;2022-12-22T12:16:38;0.60;;;0.50;;
15474;SDS011;7839;50.462;9.678;2022-12-22T12:30:04;1.27;;;0.70;;
15474;SDS011;7839;50.462;9.678;2022-12-22T12:36:56;0.50;;;0.50;;
15474;SDS011;7839;50.462;9.678;2022-12-22T12:43:39;0.70;;;0.50;;
15474;SDS011;7839;50.462;9.678;2022-12-22T12:50:30;0.60;;;0.60;;
15474;SDS011;7839;50.462;9.678;2022-12-22T12:57:44;2.40;;;1.17;;
15474;SDS011;7839;50.462;9.678;2022-12-22T13:25:03;1.63;;;0.60;;
15474;SDS011;7839;50.462;9.678;2022-12-22T13:38:34;1.00;;;0.90;;
15474;SDS011;7839;50.462;9.678;2022-12-22T13:45:37;0.90;;;0.90;;
15474;SDS011;7839;50.462;9.678;2022-12-22T13:52:15;0.90;;;0.90;;
15474;SDS011;7839;50.462;9.678;2022-12-22T13:58:59;1.27;;;1.17;;
15474;SDS011;7839;50.462;9.678;2022-12-22T14:05:40;1.20;;;1.03;;
15474;SDS011;7839;50.462;9.678;2022-12-22T14:19:01;1.17;;;1.00;;
15474;SDS011;7839;50.462;9.678;2022-12-22T14:25:41;1.37;;;1.27;;
15474;SDS011;7839;50.462;9.678;2022-12-22T14:39:19;1.60;;;1.10;;
15474;SDS011;7839;50.462;9.678;2022-12-22T14:46:03;0.83;;;0.83;;
15474;SDS011;7839;50.462;9.678;2022-12-22T14:52:46;1.00;;;1.00;;
15474;SDS011;7839;50.462;9.678;2022-12-22T14:59:30;1.10;;;1.10;;
15474;SDS011;7839;50.462;9.678;2022-12-22T15:06:20;1.37;;;1.13;;
15474;SDS011;7839;50.462;9.678;2022-12-22T15:13:02;1.40;;;1.30;;
15474;SDS011;7839;50.462;9.678;2022-12-22T15:19:44;1.20;;;1.20;;
15474;SDS011;7839;50.462;9.678;2022-12-22T15:26:24;1.30;;;1.20;;
15474;SDS011;7839;50.462;9.678;2022-12-22T15:33:09;1.60;;;1.50;;
15474;SDS011;7839;50.462;9.678;2022-12-22T15:39:50;1.50;;;1.40;;
15474;SDS011;7839;50.462;9.678;2022-12-22T15:46:31;1.80;;;1.70;;
15474;SDS011;7839;50.462;9.678;2022-12-22T15:53:13;1.80;;;1.70;;
15474;SDS011;7839;50.462;9.678;2022-12-22T15:59:54;1.73;;;1.63;;
15474;SDS011;7839;50.462;9.678;2022-12-22T16:06:34;1.60;;;1.50;;
15474;SDS011;7839;50.462;9.678;2022-12-22T16:13:15;1.63;;;1.53;;
15474;SDS011;7839;50.462;9.678;2022-12-22T16:19:55;1.77;;;1.67;;
15474;SDS011;7839;50.462;9.678;2022-12-22T16:26:35;2.30;;;2.07;;
15474;SDS011;7839;50.462;9.678;2022-12-22T16:33:16;2.00;;;1.90;;
15474;SDS011;7839;50.462;9.678;2022-12-22T16:39:56;2.20;;;2.03;;
15474;SDS011;7839;50.462;9.678;2022-12-22T16:46:38;2.17;;;2.07;;
15474;SDS011;7839;50.462;9.678;2022-12-22T16:53:18;2.40;;;2.00;;
15474;SDS011;7839;50.462;9.678;2022-12-22T16:59:58;2.43;;;2.23;;
15474;SDS011;7839;50.462;9.678;2022-12-22T17:06:39;2.50;;;2.30;;
15474;SDS011;7839;50.462;9.678;2022-12-22T17:13:19;2.20;;;2.00;;
15474;SDS011;7839;50.462;9.678;2022-12-22T17:20:00;2.30;;;2.10;;
15474;SDS011;7839;50.462;9.678;2022-12-22T17:26:41;2.00;;;1.90;;
15474;SDS011;7839;50.462;9.678;2022-12-22T17:33:22;2.40;;;2.20;;
15474;SDS011;7839;50.462;9.678;2022-12-22T17:40:02;2.67;;;2.47;;
15474;SDS011;7839;50.462;9.678;2022-12-22T17:46:43;2.60;;;2.40;;
15474;SDS011;7839;50.462;9.678;2022-12-22T17:53:23;2.53;;;2.33;;
15474;SDS011;7839;50.462;9.678;2022-12-22T18:00:14;2.47;;;2.27;;
15474;SDS011;7839;50.462;9.678;2022-12-22T18:06:55;2.30;;;1.93;;
15474;SDS011;7839;50.462;9.678;2022-12-22T18:13:35;2.53;;;2.33;;
15474;SDS011;7839;50.462;9.678;2022-12-22T18:20:19;2.70;;;2.37;;
15474;SDS011;7839;50.462;9.678;2022-12-22T18:27:00;2.97;;;2.33;;
15474;SDS011;7839;50.462;9.678;2022-12-22T18:33:40;2.03;;;1.80;;
15474;SDS011;7839;50.462;9.678;2022-12-22T18:40:22;2.70;;;2.30;;
15474;SDS011;7839;50.462;9.678;2022-12-22T18:47:03;1.90;;;1.80;;
15474;SDS011;7839;50.462;9.678;2022-12-22T18:53:44;2.40;;;2.20;;
15474;SDS011;7839;50.462;9.678;2022-12-22T19:00:28;1.70;;;1.60;;
15474;SDS011;7839;50.462;9.678;2022-12-22T19:07:15;1.90;;;1.70;;
15474;SDS011;7839;50.462;9.678;2022-12-22T19:13:57;1.60;;;1.50;;
15474;SDS011;7839;50.462;9.678;2022-12-22T19:20:38;1.27;;;1.17;;
15474;SDS011;7839;50.462;9.678;2022-12-22T19:33:59;1.50;;;1.40;;
15474;SDS011;7839;50.462;9.678;2022-12-22T19:40:39;1.20;;;1.10;;
15474;SDS011;7839;50.462;9.678;2022-12-22T19:47:20;1.17;;;1.07;;
15474;SDS011;7839;50.462;9.678;2022-12-22T19:54:03;1.40;;;1.30;;
15474;SDS011;7839;50.462;9.678;2022-12-22T20:00:44;2.33;;;1.67;;
15474;SDS011;7839;50.462;9.678;2022-12-22T20:07:26;2.27;;;1.47;;
15474;SDS011;7839;50.462;9.678;2022-12-22T20:14:09;2.90;;;2.07;;
15474;SDS011;7839;50.462;9.678;2022-12-22T20:21:13;6.97;;;2.57;;
15474;SDS011;7839;50.462;9.678;2022-12-22T20:27:52;5.37;;;2.53;;
15474;SDS011;7839;50.462;9.678;2022-12-22T20:34:32;5.60;;;2.20;;
15474;SDS011;7839;50.462;9.678;2022-12-22T20:41:13;4.03;;;2.27;;
15474;SDS011;7839;50.462;9.678;2022-12-22T20:47:54;6.27;;;2.20;;
15474;SDS011;7839;50.462;9.678;2022-12-22T20:54:35;7.20;;;2.83;;
15474;SDS011;7839;50.462;9.678;2022-12-22T21:01:15;6.07;;;2.63;;
15474;SDS011;7839;50.462;9.678;2022-12-22T21:07:56;5.83;;;2.43;;
15474;SDS011;7839;50.462;9.678;2022-12-22T21:14:36;5.80;;;2.40;;
15474;SDS011;7839;50.462;9.678;2022-12-22T21:21:16;4.63;;;2.00;;
15474;SDS011;7839;50.462;9.678;2022-12-22T21:27:57;5.13;;;2.10;;
15474;SDS011;7839;50.462;9.678;2022-12-22T21:34:37;3.47;;;1.80;;
15474;SDS011;7839;50.462;9.678;2022-12-22T21:41:18;2.80;;;1.83;;
15474;SDS011;7839;50.462;9.678;2022-12-22T21:47:58;5.13;;;2.33;;
15474;SDS011;7839;50.462;9.678;2022-12-22T21:54:39;4.53;;;1.70;;
15474;SDS011;7839;50.462;9.678;2022-12-22T22:01:20;4.00;;;1.60;;
15474;SDS011;7839;50.462;9.678;2022-12-22T22:08:02;4.43;;;1.80;;
15474;SDS011;7839;50.462;9.678;2022-12-22T22:14:43;4.57;;;1.67;;
15474;SDS011;7839;50.462;9.678;2022-12-22T22:21:24;5.40;;;2.23;;
15474;SDS011;7839;50.462;9.678;2022-12-22T22:28:04;2.30;;;1.50;;
15474;SDS011;7839;50.462;9.678;2022-12-22T22:34:44;4.13;;;2.00;;
15474;SDS011;7839;50.462;9.678;2022-12-22T22:41:24;3.57;;;1.70;;
15474;SDS011;7839;50.462;9.678;2022-12-22T22:48:06;3.03;;;1.53;;
15474;SDS011;7839;50.462;9.678;2022-12-22T22:54:47;2.93;;;1.27;;
15474;SDS011;7839;50.462;9.678;2022-12-22T23:01:27;3.13;;;1.20;;
15474;SDS011;7839;50.462;9.678;2022-12-22T23:08:07;1.90;;;1.33;;
15474;SDS011;7839;50.462;9.678;2022-12-22T23:14:47;3.23;;;1.30;;
15474;SDS011;7839;50.462;9.678;2022-12-22T23:21:30;2.43;;;1.27;;
15474;SDS011;7839;50.462;9.678;2022-12-22T23:28:10;2.40;;;0.97;;
15474;SDS011;7839;50.462;9.678;2022-12-22T23:34:51;2.97;;;1.30;;
15474;SDS011;7839;50.462;9.678;2022-12-22T23:41:31;1.83;;;1.23;;
15474;SDS011;7839;50.462;9.678;2022-12-22T23:48:11;1.27;;;1.17;;
15474;SDS011;7839;50.462;9.678;2022-12-22T23:54:51;1.33;;;0.83;;
